createdAt,value
2022-09-10T00:00:21.981Z,99.90
2022-09-10T00:02:54.169Z,99.90
2022-09-10T00:05:26.062Z,99.90
2022-09-10T00:07:58.262Z,99.90
2022-09-10T00:10:29.975Z,99.90
2022-09-10T00:13:01.708Z,99.90
2022-09-10T00:15:38.457Z,99.90
2022-09-10T00:18:10.480Z,99.90
2022-09-10T00:20:43.259Z,99.90
2022-09-10T00:23:15.146Z,99.90
2022-09-10T00:25:47.122Z,99.90
2022-09-10T00:28:19.333Z,99.90
2022-09-10T00:30:54.585Z,99.90
2022-09-10T00:33:26.332Z,99.90
2022-09-10T00:35:58.151Z,99.90
2022-09-10T00:38:30.061Z,99.90
2022-09-10T00:41:08.089Z,99.90
2022-09-10T00:43:51.785Z,99.90
2022-09-10T00:46:30.159Z,99.90
2022-09-10T00:49:06.067Z,99.90
2022-09-10T00:51:39.792Z,99.90
2022-09-10T00:54:12.712Z,99.90
2022-09-10T00:56:45.370Z,99.90
2022-09-10T00:59:20.246Z,99.90
2022-09-10T01:01:54.186Z,99.90
2022-09-10T01:04:26.780Z,99.90
2022-09-10T01:06:59.626Z,99.90
2022-09-10T01:09:31.517Z,99.90
2022-09-10T01:12:14.508Z,99.90
2022-09-10T01:15:15.614Z,99.90
2022-09-10T01:18:06.120Z,99.90
2022-09-10T01:21:04.718Z,99.90
2022-09-10T01:24:08.412Z,99.90
2022-09-10T01:27:14.476Z,99.90
2022-09-10T01:29:54.041Z,99.90
2022-09-10T01:32:30.788Z,99.90
2022-09-10T01:35:10.180Z,99.90
2022-09-10T01:37:46.905Z,99.90
2022-09-10T01:40:19.375Z,99.90
2022-09-10T01:42:51.120Z,99.90
2022-09-10T01:45:24.370Z,99.90
2022-09-10T01:48:32.770Z,99.90
2022-09-10T01:51:09.956Z,99.90
2022-09-10T01:54:00.228Z,99.90
2022-09-10T01:56:38.418Z,99.90
2022-09-10T01:59:21.942Z,99.90
2022-09-10T02:02:03.874Z,99.90
2022-09-10T02:04:37.131Z,99.90
2022-09-10T02:07:10.840Z,99.90
2022-09-10T02:09:42.733Z,99.90
2022-09-10T02:12:20.338Z,99.90
2022-09-10T02:14:55.827Z,99.90
2022-09-10T02:17:33.243Z,99.90
2022-09-10T02:20:08.223Z,99.90
2022-09-10T02:22:44.694Z,99.90
2022-09-10T02:25:16.491Z,99.90
2022-09-10T02:27:48.987Z,99.90
2022-09-10T02:30:20.847Z,99.90
2022-09-10T02:32:53.892Z,99.90
2022-09-10T02:35:25.751Z,99.90
2022-09-10T02:37:58.273Z,99.90
2022-09-10T02:40:31.808Z,99.90
2022-09-10T02:43:05.101Z,99.90
2022-09-10T02:45:38.520Z,99.90
2022-09-10T02:48:11.840Z,99.90
2022-09-10T02:50:45.442Z,99.90
2022-09-10T02:53:17.174Z,99.90
2022-09-10T02:55:49.128Z,99.90
2022-09-10T02:58:20.858Z,99.90
2022-09-10T03:00:52.670Z,99.90
2022-09-10T03:03:25.875Z,99.90
2022-09-10T03:05:57.583Z,99.90
2022-09-10T03:08:29.367Z,99.90
2022-09-10T03:11:01.163Z,99.90
2022-09-10T03:13:33.410Z,99.90
2022-09-10T03:16:05.571Z,99.90
2022-09-10T03:18:39.049Z,99.90
2022-09-10T03:21:15.555Z,99.90
2022-09-10T03:23:49.486Z,99.90
2022-09-10T03:26:22.656Z,99.90
2022-09-10T03:28:54.491Z,99.90
2022-09-10T03:31:29.388Z,99.90
2022-09-10T03:34:02.566Z,99.90
2022-09-10T03:36:34.341Z,99.90
2022-09-10T03:39:06.275Z,99.90
2022-09-10T03:41:38.107Z,99.90
2022-09-10T03:44:10.235Z,99.90
2022-09-10T03:46:41.986Z,99.90
2022-09-10T03:49:15.048Z,99.90
2022-09-10T03:51:48.179Z,99.90
2022-09-10T03:54:19.969Z,99.90
2022-09-10T03:56:51.744Z,99.90
2022-09-10T03:59:23.485Z,99.90
2022-09-10T04:01:55.278Z,99.90
2022-09-10T04:04:29.353Z,99.90
2022-09-10T04:07:01.677Z,99.90
2022-09-10T04:09:34.059Z,99.90
2022-09-10T04:12:06.391Z,99.90
2022-09-10T04:14:38.126Z,99.90
2022-09-10T04:17:09.882Z,99.90
2022-09-10T04:19:42.950Z,99.90
2022-09-10T04:22:14.695Z,99.90
2022-09-10T04:24:46.491Z,99.90
2022-09-10T04:27:18.237Z,99.90
2022-09-10T04:29:49.926Z,99.90
2022-09-10T04:32:21.639Z,99.90
2022-09-10T04:34:54.985Z,99.90
2022-09-10T04:37:27.920Z,99.90
2022-09-10T04:39:59.725Z,99.90
2022-09-10T04:42:32.316Z,99.90
2022-09-10T04:45:04.723Z,99.90
2022-09-10T04:47:36.617Z,99.90
2022-09-10T04:50:10.523Z,99.90
2022-09-10T04:52:43.330Z,99.90
2022-09-10T04:55:15.566Z,99.90
2022-09-10T04:57:47.291Z,99.90
2022-09-10T05:00:19.314Z,99.90
2022-09-10T05:02:51.061Z,99.90
2022-09-10T05:05:25.237Z,99.90
2022-09-10T05:07:56.942Z,99.90
2022-09-10T05:10:28.694Z,99.90
2022-09-10T05:13:00.658Z,99.90
2022-09-10T05:15:34.263Z,99.90
2022-09-10T05:18:06.131Z,99.90
2022-09-10T05:20:39.254Z,99.90
2022-09-10T05:23:11.077Z,99.90
2022-09-10T05:25:43.711Z,99.90
2022-09-10T05:28:16.371Z,99.90
2022-09-10T05:30:51.505Z,99.90
2022-09-10T05:33:23.807Z,99.90
2022-09-10T05:35:56.933Z,99.90
2022-09-10T05:38:29.881Z,99.90
2022-09-10T05:41:03.857Z,99.90
2022-09-10T05:43:36.360Z,99.90
2022-09-10T05:46:08.326Z,99.90
2022-09-10T05:48:41.817Z,99.90
2022-09-10T05:51:15.365Z,99.90
2022-09-10T05:53:47.118Z,99.90
2022-09-10T05:56:20.500Z,99.90
2022-09-10T05:58:52.162Z,99.90
2022-09-10T06:01:23.938Z,99.90
2022-09-10T06:03:56.147Z,99.90
2022-09-10T06:06:29.279Z,99.90
2022-09-10T06:09:01.016Z,99.90
2022-09-10T06:11:32.819Z,99.90
2022-09-10T06:14:04.547Z,99.90
2022-09-10T06:16:36.339Z,99.90
2022-09-10T06:19:10.086Z,99.90
2022-09-10T06:21:43.187Z,99.90
2022-09-10T06:24:15.322Z,99.90
2022-09-10T06:26:48.929Z,99.90
2022-09-10T06:29:20.667Z,99.90
2022-09-10T06:31:52.442Z,99.90
2022-09-10T06:34:24.306Z,99.90
2022-09-10T06:36:58.288Z,99.90
2022-09-10T06:39:30.020Z,99.90
2022-09-10T06:42:01.961Z,99.90
2022-09-10T06:44:33.728Z,99.90
2022-09-10T06:49:58.329Z,99.90
2022-09-10T06:52:31.428Z,99.90
2022-09-10T06:55:04.123Z,99.90
2022-09-10T06:57:35.846Z,99.90
2022-09-10T07:00:08.894Z,99.90
2022-09-10T07:02:40.965Z,99.90
2022-09-10T07:05:12.728Z,99.90
2022-09-10T07:07:46.797Z,99.90
2022-09-10T07:10:18.583Z,99.90
2022-09-10T07:12:50.364Z,99.90
2022-09-10T07:15:22.598Z,99.90
2022-09-10T07:17:55.115Z,99.90
2022-09-10T07:20:28.529Z,99.90
2022-09-10T07:23:01.453Z,99.90
2022-09-10T07:25:34.244Z,99.90
2022-09-10T07:28:06.649Z,99.90
2022-09-10T07:30:39.940Z,99.90
2022-09-10T07:33:11.900Z,99.90
2022-09-10T07:35:44.123Z,99.90
2022-09-10T07:38:17.594Z,99.90
2022-09-10T07:40:49.336Z,99.90
2022-09-10T07:43:21.168Z,99.90
2022-09-10T07:45:53.152Z,99.90
2022-09-10T07:48:27.181Z,99.90
2022-09-10T07:51:03.527Z,99.90
2022-09-10T07:53:37.659Z,99.90
2022-09-10T07:56:10.945Z,99.90
2022-09-10T07:58:42.843Z,99.90
2022-09-10T08:01:15.490Z,99.90
2022-09-10T08:03:47.686Z,99.90
2022-09-10T08:06:19.440Z,99.90
2022-09-10T08:08:52.899Z,99.90
2022-09-10T08:11:24.508Z,99.90
2022-09-10T08:13:56.819Z,99.90
2022-09-10T08:16:28.953Z,99.90
2022-09-10T08:19:00.762Z,99.90
2022-09-10T08:21:32.694Z,99.90
2022-09-10T08:24:06.203Z,99.90
2022-09-10T08:26:37.986Z,99.90
2022-09-10T08:29:09.713Z,99.90
2022-09-10T08:31:41.547Z,99.90
2022-09-10T08:34:13.765Z,99.90
2022-09-10T08:36:45.544Z,99.90
2022-09-10T08:39:20.731Z,99.90
2022-09-10T08:41:57.241Z,99.90
2022-09-10T08:44:35.641Z,99.90
2022-09-10T08:47:21.093Z,99.90
2022-09-10T08:49:55.889Z,99.90
2022-09-10T08:52:33.804Z,99.90
2022-09-10T08:55:19.606Z,99.90
2022-09-10T08:57:55.954Z,99.80
2022-09-10T09:00:33.722Z,99.50
2022-09-10T09:03:12.726Z,99.70
2022-09-10T09:05:47.689Z,99.80
2022-09-10T09:08:24.385Z,99.50
2022-09-10T09:11:05.089Z,99.40
2022-09-10T09:13:48.934Z,99.10
2022-09-10T09:16:39.229Z,98.60
2022-09-10T09:19:17.218Z,98.20
2022-09-10T09:21:52.227Z,97.90
2022-09-10T09:24:28.027Z,97.80
2022-09-10T09:27:09.811Z,97.70
2022-09-10T09:29:47.737Z,97.50
2022-09-10T09:32:21.754Z,97.20
2022-09-10T09:34:56.453Z,97.10
2022-09-10T09:37:31.178Z,96.90
2022-09-10T09:40:13.496Z,96.70
2022-09-10T09:42:52.098Z,95.90
2022-09-10T09:45:28.371Z,95.30
2022-09-10T09:48:00.570Z,95.10
2022-09-10T09:50:34.733Z,94.60
2022-09-10T09:53:06.485Z,94.30
2022-09-10T09:55:41.443Z,94.10
2022-09-10T09:58:35.132Z,93.70
2022-09-10T10:01:16.416Z,93.30
2022-09-10T10:03:52.304Z,93.10
2022-09-10T10:06:26.590Z,93.00
2022-09-10T10:09:01.344Z,93.10
2022-09-10T10:11:47.262Z,92.50
2022-09-10T10:14:36.321Z,92.40
2022-09-10T10:17:38.678Z,92.50
2022-09-10T10:20:12.823Z,92.40
2022-09-10T10:22:45.613Z,91.50
2022-09-10T10:25:41.142Z,91.00
2022-09-10T10:28:16.352Z,90.60
2022-09-10T10:30:53.564Z,90.40
2022-09-10T10:33:28.762Z,89.90
2022-09-10T10:36:10.546Z,90.00
2022-09-10T10:38:46.988Z,89.70
2022-09-10T10:41:41.650Z,88.50
2022-09-10T10:44:28.395Z,87.60
2022-09-10T10:47:15.765Z,87.60
2022-09-10T10:49:59.970Z,87.90
2022-09-10T10:52:40.782Z,88.00
2022-09-10T10:55:21.338Z,88.60
2022-09-10T10:58:08.715Z,88.20
2022-09-10T11:00:43.808Z,87.10
2022-09-10T11:03:22.877Z,87.00
2022-09-10T11:06:00.756Z,85.80
2022-09-10T11:08:37.502Z,86.00
2022-09-10T11:11:14.419Z,85.60
2022-09-10T11:13:53.229Z,86.00
2022-09-10T11:16:31.748Z,85.30
2022-09-10T11:19:12.684Z,84.90
2022-09-10T11:21:51.695Z,84.20
2022-09-10T11:24:27.238Z,84.20
2022-09-10T11:27:06.701Z,84.90
2022-09-10T11:29:42.908Z,85.70
2022-09-10T11:32:23.267Z,86.80
2022-09-10T11:35:03.472Z,88.50
2022-09-10T11:37:50.994Z,90.20
2022-09-10T11:40:31.118Z,91.10
2022-09-10T11:43:07.305Z,92.30
2022-09-10T11:45:45.775Z,93.60
2022-09-10T11:48:23.547Z,94.60
2022-09-10T11:51:00.971Z,95.50
2022-09-10T11:53:32.720Z,96.30
2022-09-10T11:56:26.002Z,96.60
2022-09-10T11:59:14.505Z,96.80
2022-09-10T12:02:02.724Z,96.60
2022-09-10T12:04:47.392Z,96.50
2022-09-10T12:07:31.295Z,96.30
2022-09-10T12:10:14.319Z,96.40
2022-09-10T12:12:50.050Z,96.30
2022-09-10T12:15:23.822Z,96.30
2022-09-10T12:17:59.699Z,96.60
2022-09-10T12:20:34.651Z,97.10
2022-09-10T12:23:15.097Z,97.70
2022-09-10T12:25:57.867Z,98.60
2022-09-10T12:29:04.762Z,98.40
2022-09-10T12:32:16.113Z,97.20
2022-09-10T12:34:50.056Z,93.40
2022-09-10T12:37:28.261Z,90.70
2022-09-10T12:40:37.469Z,87.70
2022-09-10T12:43:56.702Z,85.70
2022-09-10T12:46:31.061Z,84.20
2022-09-10T12:49:11.600Z,83.50
2022-09-10T12:51:56.670Z,82.30
2022-09-10T12:54:46.338Z,81.00
2022-09-10T12:57:27.399Z,79.90
2022-09-10T13:00:12.587Z,79.50
2022-09-10T13:02:50.685Z,79.30
2022-09-10T13:05:30.057Z,78.60
2022-09-10T13:08:13.146Z,78.90
2022-09-10T13:10:48.824Z,78.80
2022-09-10T13:13:33.828Z,78.70
2022-09-10T13:16:14.072Z,78.70
2022-09-10T13:18:46.940Z,78.60
2022-09-10T13:21:51.573Z,78.80
2022-09-10T13:24:37.486Z,79.20
2022-09-10T13:27:20.654Z,78.90
2022-09-10T13:30:09.832Z,78.30
2022-09-10T13:32:48.715Z,77.90
2022-09-10T13:35:55.673Z,77.20
2022-09-10T13:39:02.276Z,76.80
2022-09-10T13:41:57.535Z,76.60
2022-09-10T13:44:49.316Z,76.80
2022-09-10T13:47:28.281Z,77.40
2022-09-10T13:50:09.529Z,77.90
2022-09-10T13:52:45.153Z,78.80
2022-09-10T13:55:19.722Z,78.80
2022-09-10T13:57:54.997Z,78.60
2022-09-10T14:00:32.103Z,78.20
2022-09-10T14:03:14.401Z,77.90
2022-09-10T14:05:50.580Z,77.70
2022-09-10T14:08:26.623Z,77.70
2022-09-10T14:11:01.425Z,77.60
2022-09-10T14:13:37.861Z,76.90
2022-09-10T14:16:13.536Z,76.50
2022-09-10T14:18:48.313Z,76.90
2022-09-10T14:21:27.498Z,78.00
2022-09-10T14:23:59.952Z,80.20
2022-09-10T14:26:33.682Z,82.40
2022-09-10T14:29:24.560Z,84.40
2022-09-10T14:31:56.402Z,87.60
2022-09-10T14:34:32.811Z,90.80
2022-09-10T14:37:29.646Z,92.20
2022-09-10T14:40:14.365Z,92.60
2022-09-10T14:42:47.288Z,93.00
2022-09-10T14:45:40.031Z,93.40
2022-09-10T14:48:29.234Z,93.70
2022-09-10T14:51:19.469Z,94.10
2022-09-10T14:53:53.651Z,94.60
2022-09-10T14:56:30.496Z,94.80
2022-09-10T14:59:06.037Z,95.20
2022-09-10T15:01:40.390Z,95.20
2022-09-10T15:04:14.080Z,94.20
2022-09-10T15:06:45.870Z,93.60
2022-09-10T15:09:19.913Z,93.50
2022-09-10T15:11:54.812Z,93.70
2022-09-10T15:14:26.839Z,93.20
2022-09-10T15:16:58.679Z,92.50
2022-09-10T15:19:30.658Z,91.80
2022-09-10T15:22:02.382Z,92.10
2022-09-10T15:24:52.536Z,91.70
2022-09-10T15:27:27.206Z,91.20
2022-09-10T15:29:59.170Z,91.00
2022-09-10T15:32:30.936Z,91.00
2022-09-10T15:35:03.288Z,91.00
2022-09-10T15:37:35.199Z,90.90
2022-09-10T15:40:10.090Z,90.90
2022-09-10T15:42:41.930Z,90.90
2022-09-10T15:45:13.846Z,91.00
2022-09-10T15:47:45.940Z,91.20
2022-09-10T15:50:17.849Z,92.20
2022-09-10T15:52:50.520Z,93.10
2022-09-10T15:55:24.473Z,95.10
2022-09-10T15:57:56.900Z,96.70
2022-09-10T16:00:28.831Z,98.20
2022-09-10T16:03:01.262Z,99.30
2022-09-10T16:05:35.505Z,99.90
2022-09-10T16:08:07.939Z,99.90
2022-09-10T16:10:42.594Z,99.90
2022-09-10T16:13:14.560Z,99.90
2022-09-10T16:15:58.386Z,99.90
2022-09-10T16:18:32.270Z,99.90
2022-09-10T16:21:09.372Z,99.90
2022-09-10T16:23:42.854Z,99.90
2022-09-10T16:26:19.849Z,99.90
2022-09-10T16:28:52.706Z,99.90
2022-09-10T16:31:26.263Z,99.90
2022-09-10T16:33:59.713Z,99.90
2022-09-10T16:36:32.997Z,99.90
2022-09-10T16:39:11.689Z,99.90
2022-09-10T16:41:46.865Z,99.90
2022-09-10T16:44:19.118Z,99.90
2022-09-10T16:46:50.936Z,99.90
2022-09-10T16:49:23.364Z,99.90
2022-09-10T16:51:55.168Z,99.90
2022-09-10T16:54:27.015Z,99.90
2022-09-10T16:57:00.110Z,99.90
2022-09-10T16:59:31.921Z,99.90
2022-09-10T17:02:05.805Z,99.90
2022-09-10T17:04:38.046Z,99.90
2022-09-10T17:07:10.029Z,99.90
2022-09-10T17:09:42.002Z,99.90
2022-09-10T17:12:15.306Z,99.90
2022-09-10T17:14:48.032Z,99.90
2022-09-10T17:17:19.992Z,99.90
2022-09-10T17:19:51.821Z,99.90
2022-09-10T17:22:24.757Z,99.90
2022-09-10T17:24:57.792Z,99.90
2022-09-10T17:27:32.988Z,99.90
2022-09-10T17:30:06.879Z,99.90
2022-09-10T17:32:38.696Z,99.90
2022-09-10T17:35:11.193Z,99.90
2022-09-10T17:37:43.018Z,99.90
2022-09-10T17:40:14.897Z,99.90
2022-09-10T17:43:05.839Z,99.90
2022-09-10T17:45:38.766Z,99.90
2022-09-10T18:07:14.165Z,99.90
2022-09-10T18:58:41.822Z,99.90
2022-09-10T19:01:29.125Z,99.90
2022-09-10T19:04:13.636Z,99.90
2022-09-10T19:06:54.842Z,99.90
2022-09-10T19:16:57.715Z,99.90
2022-09-10T19:19:35.735Z,99.90
2022-09-10T19:22:10.624Z,99.90
2022-09-10T19:25:01.018Z,99.90
2022-09-10T19:27:45.110Z,99.90
2022-09-10T19:30:35.693Z,99.90
2022-09-10T19:33:17.267Z,99.90
2022-09-10T20:34:07.555Z,99.90
2022-09-10T20:36:44.122Z,99.90
2022-09-10T20:39:21.368Z,99.90
2022-09-10T20:41:57.237Z,99.90
2022-09-10T20:44:34.843Z,99.90
2022-09-10T20:47:10.799Z,99.90
2022-09-10T20:49:48.729Z,99.90
2022-09-10T20:52:27.472Z,99.90
2022-09-10T20:55:06.468Z,99.90
2022-09-10T20:57:57.143Z,99.90
2022-09-10T21:00:43.630Z,99.90
2022-09-10T21:03:21.893Z,99.90
2022-09-10T21:06:00.142Z,99.90
2022-09-10T21:08:38.155Z,99.90
2022-09-10T21:11:14.758Z,99.90
2022-09-10T21:13:48.696Z,99.90
2022-09-10T21:16:31.699Z,99.90
2022-09-10T21:19:08.509Z,99.90
2022-09-10T21:21:47.762Z,99.90
2022-09-10T21:24:25.313Z,99.90
2022-09-10T21:26:59.839Z,99.90
2022-09-10T21:29:35.958Z,99.90
2022-09-10T21:32:09.598Z,99.90
2022-09-10T21:34:43.104Z,99.90
2022-09-10T21:37:24.602Z,99.90
2022-09-10T21:39:58.962Z,99.90
2022-09-10T21:42:36.509Z,99.90
2022-09-10T21:45:14.299Z,99.90
2022-09-10T21:47:48.586Z,99.90
2022-09-10T21:50:28.655Z,99.90
2022-09-10T21:53:04.174Z,99.90
2022-09-10T21:55:38.866Z,99.90
2022-09-10T21:58:16.216Z,99.90
2022-09-10T22:00:50.562Z,99.90
2022-09-10T22:03:25.889Z,99.90
2022-09-10T22:06:17.344Z,99.90
2022-09-10T22:09:00.641Z,99.90
2022-09-10T22:11:52.216Z,99.90
2022-09-10T22:14:38.747Z,99.90
2022-09-10T22:17:12.725Z,99.90
2022-09-10T22:19:49.861Z,99.90
2022-09-10T22:22:24.286Z,99.90
2022-09-10T22:25:13.628Z,99.90
2022-09-10T22:28:03.820Z,99.90
2022-09-10T22:30:45.289Z,99.90
2022-09-10T22:33:22.358Z,99.90
2022-09-10T22:36:04.614Z,99.90
2022-09-10T22:38:49.867Z,99.90
2022-09-10T22:41:31.893Z,99.90
2022-09-10T22:44:07.446Z,99.90
2022-09-10T22:46:46.340Z,99.90
2022-09-10T22:49:25.585Z,99.90
2022-09-10T22:52:06.361Z,99.90
2022-09-10T22:54:43.193Z,99.90
2022-09-10T22:57:23.390Z,99.90
2022-09-10T23:00:02.787Z,99.90
2022-09-10T23:02:53.687Z,99.90
2022-09-10T23:05:49.663Z,99.90
2022-09-10T23:08:35.690Z,99.90
2022-09-10T23:11:18.307Z,99.90
2022-09-10T23:14:02.191Z,99.90
2022-09-10T23:16:48.538Z,99.90
2022-09-10T23:19:33.609Z,99.90
2022-09-10T23:22:14.611Z,99.90
2022-09-10T23:24:59.477Z,99.90
2022-09-10T23:27:36.854Z,99.90
2022-09-10T23:30:24.557Z,99.90
2022-09-10T23:32:59.345Z,99.90
2022-09-10T23:35:37.228Z,99.90
2022-09-10T23:38:12.628Z,99.90
2022-09-10T23:40:54.787Z,99.90
2022-09-10T23:43:39.761Z,99.90
2022-09-10T23:46:28.121Z,99.90
2022-09-10T23:49:12.435Z,99.90
2022-09-10T23:51:54.228Z,99.90
2022-09-10T23:54:34.557Z,99.90
2022-09-10T23:57:16.923Z,99.90
2022-09-10T23:59:57.003Z,99.90
